sensor_id;sensor_type;location;lat;lon;timestamp;temperature;humidity
21275;DHT22;36472;52.170;20.884;2022-07-22T00:00:20;36.90;45.10
21275;DHT22;36472;52.170;20.884;2022-07-22T00:03:02;36.90;45.00
21275;DHT22;36472;52.170;20.884;2022-07-22T00:05:31;36.90;45.20
21275;DHT22;36472;52.170;20.884;2022-07-22T00:07:59;36.90;44.90
21275;DHT22;36472;52.170;20.884;2022-07-22T00:10:29;36.90;44.80
21275;DHT22;36472;52.170;20.884;2022-07-22T00:12:58;36.90;45.10
21275;DHT22;36472;52.170;20.884;2022-07-22T00:15:27;36.90;44.90
21275;DHT22;36472;52.170;20.884;2022-07-22T00:17:56;36.90;44.70
21275;DHT22;36472;52.170;20.884;2022-07-22T00:20:25;36.90;44.80
21275;DHT22;36472;52.170;20.884;2022-07-22T00:22:54;36.90;45.00
21275;DHT22;36472;52.170;20.884;2022-07-22T00:25:22;36.90;45.10
21275;DHT22;36472;52.170;20.884;2022-07-22T00:27:52;36.80;45.00
21275;DHT22;36472;52.170;20.884;2022-07-22T00:30:21;36.80;44.70
21275;DHT22;36472;52.170;20.884;2022-07-22T00:32:50;36.80;44.80
21275;DHT22;36472;52.170;20.884;2022-07-22T00:35:20;36.80;44.80
21275;DHT22;36472;52.170;20.884;2022-07-22T00:37:49;36.80;45.00
21275;DHT22;36472;52.170;20.884;2022-07-22T00:40:18;36.80;44.90
21275;DHT22;36472;52.170;20.884;2022-07-22T00:42:46;36.80;44.70
21275;DHT22;36472;52.170;20.884;2022-07-22T00:45:18;36.70;44.30
21275;DHT22;36472;52.170;20.884;2022-07-22T00:47:47;36.80;44.60
21275;DHT22;36472;52.170;20.884;2022-07-22T00:50:15;36.80;44.70
21275;DHT22;36472;52.170;20.884;2022-07-22T00:52:47;36.80;44.90
21275;DHT22;36472;52.170;20.884;2022-07-22T00:55:16;36.70;44.70
21275;DHT22;36472;52.170;20.884;2022-07-22T00:57:45;36.70;44.60
21275;DHT22;36472;52.170;20.884;2022-07-22T01:00:17;36.70;44.40
21275;DHT22;36472;52.170;20.884;2022-07-22T01:02:48;36.70;44.40
21275;DHT22;36472;52.170;20.884;2022-07-22T01:05:17;36.70;44.30
21275;DHT22;36472;52.170;20.884;2022-07-22T01:07:46;36.70;44.10
21275;DHT22;36472;52.170;20.884;2022-07-22T01:10:15;36.70;44.00
21275;DHT22;36472;52.170;20.884;2022-07-22T01:12:44;36.70;43.70
21275;DHT22;36472;52.170;20.884;2022-07-22T01:15:13;36.70;44.10
21275;DHT22;36472;52.170;20.884;2022-07-22T01:17:43;36.70;44.30
21275;DHT22;36472;52.170;20.884;2022-07-22T01:20:13;36.70;44.10
21275;DHT22;36472;52.170;20.884;2022-07-22T01:22:42;36.70;44.10
21275;DHT22;36472;52.170;20.884;2022-07-22T01:25:11;36.70;44.20
21275;DHT22;36472;52.170;20.884;2022-07-22T01:27:40;36.70;44.70
21275;DHT22;36472;52.170;20.884;2022-07-22T01:30:10;36.70;44.10
21275;DHT22;36472;52.170;20.884;2022-07-22T01:32:39;36.60;44.20
21275;DHT22;36472;52.170;20.884;2022-07-22T01:35:09;36.60;44.10
21275;DHT22;36472;52.170;20.884;2022-07-22T01:37:39;36.60;44.20
21275;DHT22;36472;52.170;20.884;2022-07-22T01:40:09;36.60;44.20
21275;DHT22;36472;52.170;20.884;2022-07-22T01:42:38;36.60;44.40
21275;DHT22;36472;52.170;20.884;2022-07-22T01:45:08;36.60;44.30
21275;DHT22;36472;52.170;20.884;2022-07-22T01:47:37;36.60;44.30
21275;DHT22;36472;52.170;20.884;2022-07-22T01:50:08;36.60;44.40
21275;DHT22;36472;52.170;20.884;2022-07-22T01:52:40;36.50;44.30
21275;DHT22;36472;52.170;20.884;2022-07-22T01:55:10;36.40;44.40
21275;DHT22;36472;52.170;20.884;2022-07-22T01:57:39;36.30;44.60
21275;DHT22;36472;52.170;20.884;2022-07-22T02:00:25;36.20;44.70
21275;DHT22;36472;52.170;20.884;2022-07-22T02:02:54;36.20;44.90
21275;DHT22;36472;52.170;20.884;2022-07-22T02:05:23;36.10;45.00
21275;DHT22;36472;52.170;20.884;2022-07-22T02:07:59;36.00;45.20
21275;DHT22;36472;52.170;20.884;2022-07-22T02:10:32;36.00;45.30
21275;DHT22;36472;52.170;20.884;2022-07-22T02:13:03;36.00;45.10
21275;DHT22;36472;52.170;20.884;2022-07-22T02:15:32;36.10;45.30
21275;DHT22;36472;52.170;20.884;2022-07-22T02:18:10;36.10;45.00
21275;DHT22;36472;52.170;20.884;2022-07-22T02:20:42;36.20;45.10
21275;DHT22;36472;52.170;20.884;2022-07-22T02:23:13;35.20;45.90
21275;DHT22;36472;52.170;20.884;2022-07-22T02:25:43;35.10;46.30
21275;DHT22;36472;52.170;20.884;2022-07-22T02:28:12;34.70;46.80
21275;DHT22;36472;52.170;20.884;2022-07-22T02:30:41;35.10;46.80
21275;DHT22;36472;52.170;20.884;2022-07-22T02:33:09;35.00;46.60
21275;DHT22;36472;52.170;20.884;2022-07-22T02:35:40;34.90;47.20
21275;DHT22;36472;52.170;20.884;2022-07-22T02:38:10;35.00;46.40
21275;DHT22;36472;52.170;20.884;2022-07-22T02:40:40;35.30;45.80
21275;DHT22;36472;52.170;20.884;2022-07-22T02:43:11;35.40;45.80
21275;DHT22;36472;52.170;20.884;2022-07-22T02:45:40;35.40;46.00
21275;DHT22;36472;52.170;20.884;2022-07-22T02:48:08;35.40;45.70
21275;DHT22;36472;52.170;20.884;2022-07-22T02:50:37;35.50;45.40
21275;DHT22;36472;52.170;20.884;2022-07-22T02:53:06;35.60;45.50
21275;DHT22;36472;52.170;20.884;2022-07-22T02:55:38;35.50;45.90
21275;DHT22;36472;52.170;20.884;2022-07-22T02:58:09;35.50;45.60
21275;DHT22;36472;52.170;20.884;2022-07-22T03:00:41;35.60;45.20
21275;DHT22;36472;52.170;20.884;2022-07-22T03:03:09;35.60;45.30
21275;DHT22;36472;52.170;20.884;2022-07-22T03:05:39;35.70;45.30
21275;DHT22;36472;52.170;20.884;2022-07-22T03:08:46;35.70;45.20
21275;DHT22;36472;52.170;20.884;2022-07-22T03:11:15;35.80;45.30
21275;DHT22;36472;52.170;20.884;2022-07-22T03:13:45;35.80;45.80
21275;DHT22;36472;52.170;20.884;2022-07-22T03:16:14;35.90;44.90
21275;DHT22;36472;52.170;20.884;2022-07-22T03:18:43;35.90;45.00
21275;DHT22;36472;52.170;20.884;2022-07-22T03:21:12;35.90;45.00
21275;DHT22;36472;52.170;20.884;2022-07-22T03:23:41;35.90;45.00
21275;DHT22;36472;52.170;20.884;2022-07-22T03:26:10;36.00;45.00
21275;DHT22;36472;52.170;20.884;2022-07-22T03:28:38;36.00;44.70
21275;DHT22;36472;52.170;20.884;2022-07-22T03:31:09;36.00;44.80
21275;DHT22;36472;52.170;20.884;2022-07-22T03:33:38;36.00;45.20
21275;DHT22;36472;52.170;20.884;2022-07-22T03:36:08;36.00;45.10
21275;DHT22;36472;52.170;20.884;2022-07-22T03:38:40;36.00;45.10
21275;DHT22;36472;52.170;20.884;2022-07-22T03:41:09;36.00;44.90
21275;DHT22;36472;52.170;20.884;2022-07-22T03:43:38;36.10;45.50
21275;DHT22;36472;52.170;20.884;2022-07-22T03:46:08;36.00;45.50
21275;DHT22;36472;52.170;20.884;2022-07-22T03:48:39;36.00;45.90
21275;DHT22;36472;52.170;20.884;2022-07-22T03:51:08;35.90;45.90
21275;DHT22;36472;52.170;20.884;2022-07-22T03:53:37;35.80;46.10
21275;DHT22;36472;52.170;20.884;2022-07-22T03:56:07;35.80;46.60
21275;DHT22;36472;52.170;20.884;2022-07-22T03:58:36;35.70;46.60
21275;DHT22;36472;52.170;20.884;2022-07-22T04:01:05;35.70;46.40
21275;DHT22;36472;52.170;20.884;2022-07-22T04:03:35;35.60;46.40
21275;DHT22;36472;52.170;20.884;2022-07-22T04:06:04;35.60;46.60
21275;DHT22;36472;52.170;20.884;2022-07-22T04:08:50;35.60;47.20
21275;DHT22;36472;52.170;20.884;2022-07-22T04:11:20;35.60;46.80
21275;DHT22;36472;52.170;20.884;2022-07-22T04:13:50;35.70;46.80
21275;DHT22;36472;52.170;20.884;2022-07-22T04:16:18;35.70;47.40
21275;DHT22;36472;52.170;20.884;2022-07-22T04:18:57;35.70;47.70
21275;DHT22;36472;52.170;20.884;2022-07-22T04:21:59;35.70;47.50
21275;DHT22;36472;52.170;20.884;2022-07-22T04:24:30;35.80;47.10
21275;DHT22;36472;52.170;20.884;2022-07-22T04:26:58;35.80;46.90
21275;DHT22;36472;52.170;20.884;2022-07-22T04:29:28;36.00;47.40
21275;DHT22;36472;52.170;20.884;2022-07-22T04:31:57;36.00;47.60
21275;DHT22;36472;52.170;20.884;2022-07-22T04:34:31;36.10;46.90
21275;DHT22;36472;52.170;20.884;2022-07-22T04:37:02;36.10;46.30
21275;DHT22;36472;52.170;20.884;2022-07-22T04:39:35;36.20;47.00
21275;DHT22;36472;52.170;20.884;2022-07-22T04:42:05;36.30;47.10
21275;DHT22;36472;52.170;20.884;2022-07-22T04:44:34;36.30;47.20
21275;DHT22;36472;52.170;20.884;2022-07-22T04:47:03;36.50;47.40
21275;DHT22;36472;52.170;20.884;2022-07-22T04:49:38;36.50;46.70
21275;DHT22;36472;52.170;20.884;2022-07-22T04:52:08;36.60;46.60
21275;DHT22;36472;52.170;20.884;2022-07-22T04:54:47;36.70;46.10
21275;DHT22;36472;52.170;20.884;2022-07-22T04:57:17;36.80;46.20
21275;DHT22;36472;52.170;20.884;2022-07-22T04:59:46;36.90;46.60
21275;DHT22;36472;52.170;20.884;2022-07-22T05:02:14;36.90;45.90
21275;DHT22;36472;52.170;20.884;2022-07-22T05:04:45;37.00;44.90
21275;DHT22;36472;52.170;20.884;2022-07-22T05:07:15;37.10;45.40
21275;DHT22;36472;52.170;20.884;2022-07-22T05:09:44;37.20;45.60
21275;DHT22;36472;52.170;20.884;2022-07-22T05:12:14;37.30;45.60
21275;DHT22;36472;52.170;20.884;2022-07-22T05:14:43;37.40;45.50
21275;DHT22;36472;52.170;20.884;2022-07-22T05:17:12;37.50;43.50
21275;DHT22;36472;52.170;20.884;2022-07-22T05:20:01;37.50;44.30
21275;DHT22;36472;52.170;20.884;2022-07-22T05:22:31;37.60;44.40
21275;DHT22;36472;52.170;20.884;2022-07-22T05:25:08;37.70;44.00
21275;DHT22;36472;52.170;20.884;2022-07-22T05:27:37;37.80;43.20
21275;DHT22;36472;52.170;20.884;2022-07-22T05:30:07;37.90;44.30
21275;DHT22;36472;52.170;20.884;2022-07-22T05:32:37;37.90;44.10
21275;DHT22;36472;52.170;20.884;2022-07-22T05:35:08;38.10;43.60
21275;DHT22;36472;52.170;20.884;2022-07-22T05:37:37;38.10;44.10
21275;DHT22;36472;52.170;20.884;2022-07-22T05:40:07;38.20;44.30
21275;DHT22;36472;52.170;20.884;2022-07-22T05:42:37;38.30;43.60
21275;DHT22;36472;52.170;20.884;2022-07-22T05:45:06;38.40;43.00
21275;DHT22;36472;52.170;20.884;2022-07-22T05:47:37;38.50;42.00
21275;DHT22;36472;52.170;20.884;2022-07-22T05:50:07;38.60;43.00
21275;DHT22;36472;52.170;20.884;2022-07-22T05:52:38;38.70;42.50
21275;DHT22;36472;52.170;20.884;2022-07-22T05:55:08;38.80;45.10
21275;DHT22;36472;52.170;20.884;2022-07-22T05:57:40;38.90;42.60
21275;DHT22;36472;52.170;20.884;2022-07-22T06:00:11;39.00;41.90
21275;DHT22;36472;52.170;20.884;2022-07-22T06:02:40;39.20;43.10
21275;DHT22;36472;52.170;20.884;2022-07-22T06:05:16;39.40;42.90
21275;DHT22;36472;52.170;20.884;2022-07-22T06:08:04;39.60;42.70
21275;DHT22;36472;52.170;20.884;2022-07-22T06:10:41;39.80;42.10
21275;DHT22;36472;52.170;20.884;2022-07-22T06:13:10;39.90;41.90
21275;DHT22;36472;52.170;20.884;2022-07-22T06:15:40;40.00;41.80
21275;DHT22;36472;52.170;20.884;2022-07-22T06:18:10;40.10;41.10
21275;DHT22;36472;52.170;20.884;2022-07-22T06:20:41;40.10;40.30
21275;DHT22;36472;52.170;20.884;2022-07-22T06:23:09;40.10;40.20
21275;DHT22;36472;52.170;20.884;2022-07-22T06:25:39;40.30;39.50
21275;DHT22;36472;52.170;20.884;2022-07-22T06:28:21;40.40;40.40
21275;DHT22;36472;52.170;20.884;2022-07-22T06:30:50;40.30;39.70
21275;DHT22;36472;52.170;20.884;2022-07-22T06:33:21;40.30;40.00
21275;DHT22;36472;52.170;20.884;2022-07-22T06:35:51;40.30;41.00
21275;DHT22;36472;52.170;20.884;2022-07-22T06:38:20;40.40;40.70
21275;DHT22;36472;52.170;20.884;2022-07-22T06:41:21;40.50;39.10
21275;DHT22;36472;52.170;20.884;2022-07-22T06:44:06;40.40;40.90
21275;DHT22;36472;52.170;20.884;2022-07-22T06:46:46;40.40;40.50
21275;DHT22;36472;52.170;20.884;2022-07-22T06:49:17;40.40;40.10
21275;DHT22;36472;52.170;20.884;2022-07-22T06:51:52;40.60;40.10
21275;DHT22;36472;52.170;20.884;2022-07-22T06:54:22;40.60;40.80
21275;DHT22;36472;52.170;20.884;2022-07-22T06:56:54;40.80;39.70
21275;DHT22;36472;52.170;20.884;2022-07-22T06:59:28;40.80;40.00
21275;DHT22;36472;52.170;20.884;2022-07-22T07:01:58;41.00;39.50
21275;DHT22;36472;52.170;20.884;2022-07-22T07:04:33;40.90;40.70
21275;DHT22;36472;52.170;20.884;2022-07-22T07:07:03;41.00;39.30
21275;DHT22;36472;52.170;20.884;2022-07-22T07:09:33;41.20;38.90
21275;DHT22;36472;52.170;20.884;2022-07-22T07:12:12;41.20;38.40
21275;DHT22;36472;52.170;20.884;2022-07-22T07:15:18;41.20;38.00
21275;DHT22;36472;52.170;20.884;2022-07-22T07:17:54;41.30;38.10
21275;DHT22;36472;52.170;20.884;2022-07-22T07:20:25;41.20;39.10
21275;DHT22;36472;52.170;20.884;2022-07-22T07:23:00;41.40;37.50
21275;DHT22;36472;52.170;20.884;2022-07-22T07:25:32;41.60;37.80
21275;DHT22;36472;52.170;20.884;2022-07-22T07:28:02;41.70;37.00
21275;DHT22;36472;52.170;20.884;2022-07-22T07:30:58;41.50;38.40
21275;DHT22;36472;52.170;20.884;2022-07-22T07:33:27;41.40;38.10
21275;DHT22;36472;52.170;20.884;2022-07-22T07:35:57;41.50;37.90
21275;DHT22;36472;52.170;20.884;2022-07-22T07:38:41;41.70;37.00
21275;DHT22;36472;52.170;20.884;2022-07-22T07:41:15;41.80;36.90
21275;DHT22;36472;52.170;20.884;2022-07-22T07:43:49;42.00;36.60
21275;DHT22;36472;52.170;20.884;2022-07-22T07:46:19;42.00;37.10
21275;DHT22;36472;52.170;20.884;2022-07-22T07:48:48;42.20;36.30
21275;DHT22;36472;52.170;20.884;2022-07-22T07:51:17;42.10;36.90
21275;DHT22;36472;52.170;20.884;2022-07-22T07:53:47;42.20;37.90
21275;DHT22;36472;52.170;20.884;2022-07-22T07:56:16;42.30;36.80
21275;DHT22;36472;52.170;20.884;2022-07-22T07:58:46;42.30;36.90
21275;DHT22;36472;52.170;20.884;2022-07-22T08:01:34;42.30;37.10
21275;DHT22;36472;52.170;20.884;2022-07-22T08:04:24;42.20;36.50
21275;DHT22;36472;52.170;20.884;2022-07-22T08:07:10;42.10;37.60
21275;DHT22;36472;52.170;20.884;2022-07-22T08:09:43;42.20;38.40
21275;DHT22;36472;52.170;20.884;2022-07-22T08:12:31;42.10;37.50
21275;DHT22;36472;52.170;20.884;2022-07-22T08:15:19;42.30;37.90
21275;DHT22;36472;52.170;20.884;2022-07-22T08:17:53;42.30;38.40
21275;DHT22;36472;52.170;20.884;2022-07-22T08:20:23;42.20;38.30
21275;DHT22;36472;52.170;20.884;2022-07-22T08:22:53;42.30;38.30
21275;DHT22;36472;52.170;20.884;2022-07-22T08:25:27;42.50;38.70
21275;DHT22;36472;52.170;20.884;2022-07-22T08:27:57;42.40;38.70
21275;DHT22;36472;52.170;20.884;2022-07-22T08:30:26;42.30;37.90
21275;DHT22;36472;52.170;20.884;2022-07-22T08:32:57;42.30;38.50
21275;DHT22;36472;52.170;20.884;2022-07-22T08:35:26;42.60;38.80
21275;DHT22;36472;52.170;20.884;2022-07-22T08:37:55;42.70;38.60
21275;DHT22;36472;52.170;20.884;2022-07-22T08:40:25;42.50;38.80
21275;DHT22;36472;52.170;20.884;2022-07-22T08:42:55;42.50;38.30
21275;DHT22;36472;52.170;20.884;2022-07-22T08:45:26;42.60;37.50
21275;DHT22;36472;52.170;20.884;2022-07-22T08:47:58;42.60;38.50
21275;DHT22;36472;52.170;20.884;2022-07-22T08:50:59;42.80;38.60
21275;DHT22;36472;52.170;20.884;2022-07-22T08:53:39;43.00;37.80
21275;DHT22;36472;52.170;20.884;2022-07-22T08:56:12;43.10;37.40
21275;DHT22;36472;52.170;20.884;2022-07-22T08:58:43;43.50;36.50
21275;DHT22;36472;52.170;20.884;2022-07-22T09:01:15;43.40;36.80
21275;DHT22;36472;52.170;20.884;2022-07-22T09:03:54;43.10;36.10
21275;DHT22;36472;52.170;20.884;2022-07-22T09:06:31;43.20;36.60
21275;DHT22;36472;52.170;20.884;2022-07-22T09:09:05;43.40;37.00
21275;DHT22;36472;52.170;20.884;2022-07-22T09:12:12;43.50;38.60
21275;DHT22;36472;52.170;20.884;2022-07-22T09:15:09;43.70;35.90
21275;DHT22;36472;52.170;20.884;2022-07-22T09:17:44;43.80;36.50
21275;DHT22;36472;52.170;20.884;2022-07-22T09:20:29;44.10;36.70
21275;DHT22;36472;52.170;20.884;2022-07-22T09:23:39;44.30;36.10
21275;DHT22;36472;52.170;20.884;2022-07-22T09:26:30;44.50;36.40
21275;DHT22;36472;52.170;20.884;2022-07-22T09:29:18;44.50;35.90
21275;DHT22;36472;52.170;20.884;2022-07-22T09:32:10;44.50;36.40
21275;DHT22;36472;52.170;20.884;2022-07-22T09:35:04;44.50;36.00
21275;DHT22;36472;52.170;20.884;2022-07-22T09:37:50;44.50;35.70
21275;DHT22;36472;52.170;20.884;2022-07-22T09:40:23;44.50;35.70
21275;DHT22;36472;52.170;20.884;2022-07-22T09:42:54;44.30;36.10
21275;DHT22;36472;52.170;20.884;2022-07-22T09:45:25;44.50;36.40
21275;DHT22;36472;52.170;20.884;2022-07-22T09:47:58;44.80;35.80
21275;DHT22;36472;52.170;20.884;2022-07-22T09:51:07;44.90;35.80
21275;DHT22;36472;52.170;20.884;2022-07-22T09:53:49;45.10;35.50
21275;DHT22;36472;52.170;20.884;2022-07-22T09:56:24;45.00;35.30
21275;DHT22;36472;52.170;20.884;2022-07-22T09:58:57;45.00;35.20
21275;DHT22;36472;52.170;20.884;2022-07-22T10:01:34;45.20;35.30
21275;DHT22;36472;52.170;20.884;2022-07-22T10:04:06;44.90;35.30
21275;DHT22;36472;52.170;20.884;2022-07-22T10:06:39;44.80;35.90
21275;DHT22;36472;52.170;20.884;2022-07-22T10:09:17;45.10;36.30
21275;DHT22;36472;52.170;20.884;2022-07-22T10:11:48;45.40;35.40
21275;DHT22;36472;52.170;20.884;2022-07-22T10:14:20;45.50;35.60
21275;DHT22;36472;52.170;20.884;2022-07-22T10:16:55;45.60;35.70
21275;DHT22;36472;52.170;20.884;2022-07-22T10:19:29;45.10;34.60
21275;DHT22;36472;52.170;20.884;2022-07-22T10:21:58;45.10;35.70
21275;DHT22;36472;52.170;20.884;2022-07-22T10:24:26;45.10;35.60
21275;DHT22;36472;52.170;20.884;2022-07-22T10:26:58;44.70;35.80
21275;DHT22;36472;52.170;20.884;2022-07-22T10:29:30;44.50;35.60
21275;DHT22;36472;52.170;20.884;2022-07-22T10:32:22;44.50;36.20
21275;DHT22;36472;52.170;20.884;2022-07-22T10:35:25;44.70;35.70
21275;DHT22;36472;52.170;20.884;2022-07-22T10:38:04;44.80;36.20
21275;DHT22;36472;52.170;20.884;2022-07-22T10:40:53;44.80;35.10
21275;DHT22;36472;52.170;20.884;2022-07-22T10:43:24;44.80;35.90
21275;DHT22;36472;52.170;20.884;2022-07-22T10:45:55;44.70;34.80
21275;DHT22;36472;52.170;20.884;2022-07-22T10:48:47;44.70;35.70
21275;DHT22;36472;52.170;20.884;2022-07-22T10:51:19;44.70;36.30
21275;DHT22;36472;52.170;20.884;2022-07-22T10:53:54;44.80;36.00
21275;DHT22;36472;52.170;20.884;2022-07-22T10:56:27;44.90;34.40
21275;DHT22;36472;52.170;20.884;2022-07-22T10:58:59;44.70;34.30
21275;DHT22;36472;52.170;20.884;2022-07-22T11:01:37;44.90;34.80
21275;DHT22;36472;52.170;20.884;2022-07-22T11:04:13;44.90;34.50
21275;DHT22;36472;52.170;20.884;2022-07-22T11:06:47;44.80;34.40
21275;DHT22;36472;52.170;20.884;2022-07-22T11:09:27;44.90;34.80
21275;DHT22;36472;52.170;20.884;2022-07-22T11:11:59;44.70;34.80
21275;DHT22;36472;52.170;20.884;2022-07-22T11:14:30;44.70;35.60
21275;DHT22;36472;52.170;20.884;2022-07-22T11:17:04;44.50;35.60
21275;DHT22;36472;52.170;20.884;2022-07-22T11:19:35;44.20;35.80
21275;DHT22;36472;52.170;20.884;2022-07-22T11:22:07;44.30;35.20
21275;DHT22;36472;52.170;20.884;2022-07-22T11:24:39;43.90;36.10
21275;DHT22;36472;52.170;20.884;2022-07-22T11:27:15;43.90;36.90
21275;DHT22;36472;52.170;20.884;2022-07-22T11:29:48;43.90;36.30
21275;DHT22;36472;52.170;20.884;2022-07-22T11:32:19;43.90;36.10
21275;DHT22;36472;52.170;20.884;2022-07-22T11:34:56;44.00;35.30
21275;DHT22;36472;52.170;20.884;2022-07-22T11:37:28;43.90;36.20
21275;DHT22;36472;52.170;20.884;2022-07-22T11:40:00;43.60;37.20
21275;DHT22;36472;52.170;20.884;2022-07-22T11:42:31;43.60;36.10
21275;DHT22;36472;52.170;20.884;2022-07-22T11:45:00;43.80;36.50
21275;DHT22;36472;52.170;20.884;2022-07-22T11:47:29;43.90;36.30
21275;DHT22;36472;52.170;20.884;2022-07-22T11:49:58;43.90;37.20
21275;DHT22;36472;52.170;20.884;2022-07-22T11:52:28;43.90;37.30
21275;DHT22;36472;52.170;20.884;2022-07-22T11:54:57;43.90;36.60
21275;DHT22;36472;52.170;20.884;2022-07-22T11:57:26;44.00;36.40
21275;DHT22;36472;52.170;20.884;2022-07-22T11:59:55;44.00;36.30
21275;DHT22;36472;52.170;20.884;2022-07-22T12:02:38;44.10;35.80
21275;DHT22;36472;52.170;20.884;2022-07-22T12:05:08;44.20;36.70
21275;DHT22;36472;52.170;20.884;2022-07-22T12:07:58;44.20;36.10
21275;DHT22;36472;52.170;20.884;2022-07-22T12:10:27;44.00;35.90
21275;DHT22;36472;52.170;20.884;2022-07-22T12:12:56;44.00;36.40
21275;DHT22;36472;52.170;20.884;2022-07-22T12:15:25;44.10;36.60
21275;DHT22;36472;52.170;20.884;2022-07-22T12:18:17;44.00;36.30
21275;DHT22;36472;52.170;20.884;2022-07-22T12:20:48;43.80;35.90
21275;DHT22;36472;52.170;20.884;2022-07-22T12:23:24;43.80;36.80
21275;DHT22;36472;52.170;20.884;2022-07-22T12:25:56;44.00;37.20
21275;DHT22;36472;52.170;20.884;2022-07-22T12:28:27;43.70;36.00
21275;DHT22;36472;52.170;20.884;2022-07-22T12:30:56;43.70;37.00
21275;DHT22;36472;52.170;20.884;2022-07-22T12:33:25;43.80;36.60
21275;DHT22;36472;52.170;20.884;2022-07-22T12:36:02;43.80;36.40
21275;DHT22;36472;52.170;20.884;2022-07-22T12:38:34;43.80;35.70
21275;DHT22;36472;52.170;20.884;2022-07-22T12:41:26;43.90;35.90
21275;DHT22;36472;52.170;20.884;2022-07-22T12:43:57;44.20;35.60
21275;DHT22;36472;52.170;20.884;2022-07-22T12:46:28;44.10;35.70
21275;DHT22;36472;52.170;20.884;2022-07-22T12:48:56;44.00;35.30
21275;DHT22;36472;52.170;20.884;2022-07-22T12:51:27;44.20;35.20
21275;DHT22;36472;52.170;20.884;2022-07-22T12:53:58;44.20;35.30
21275;DHT22;36472;52.170;20.884;2022-07-22T12:56:27;44.10;35.90
21275;DHT22;36472;52.170;20.884;2022-07-22T12:59:02;44.30;35.20
21275;DHT22;36472;52.170;20.884;2022-07-22T13:01:31;44.40;35.40
21275;DHT22;36472;52.170;20.884;2022-07-22T13:04:00;44.40;37.30
21275;DHT22;36472;52.170;20.884;2022-07-22T13:06:30;44.60;35.30
21275;DHT22;36472;52.170;20.884;2022-07-22T13:09:00;44.30;35.70
21275;DHT22;36472;52.170;20.884;2022-07-22T13:11:29;44.00;37.10
21275;DHT22;36472;52.170;20.884;2022-07-22T13:13:58;44.00;37.10
21275;DHT22;36472;52.170;20.884;2022-07-22T13:16:27;43.90;35.90
21275;DHT22;36472;52.170;20.884;2022-07-22T13:18:56;43.90;36.40
21275;DHT22;36472;52.170;20.884;2022-07-22T13:21:25;44.00;37.30
21275;DHT22;36472;52.170;20.884;2022-07-22T13:23:54;44.20;35.90
21275;DHT22;36472;52.170;20.884;2022-07-22T13:26:24;44.20;36.10
21275;DHT22;36472;52.170;20.884;2022-07-22T13:28:53;44.20;36.00
21275;DHT22;36472;52.170;20.884;2022-07-22T13:31:22;44.40;35.60
21275;DHT22;36472;52.170;20.884;2022-07-22T13:33:51;44.30;35.10
21275;DHT22;36472;52.170;20.884;2022-07-22T13:36:21;44.10;35.80
21275;DHT22;36472;52.170;20.884;2022-07-22T13:38:50;44.20;36.10
21275;DHT22;36472;52.170;20.884;2022-07-22T13:41:19;44.40;35.50
21275;DHT22;36472;52.170;20.884;2022-07-22T13:43:49;44.30;36.00
21275;DHT22;36472;52.170;20.884;2022-07-22T13:46:18;44.20;36.00
21275;DHT22;36472;52.170;20.884;2022-07-22T13:48:47;44.40;35.70
21275;DHT22;36472;52.170;20.884;2022-07-22T13:51:16;44.50;35.70
21275;DHT22;36472;52.170;20.884;2022-07-22T13:53:45;44.80;36.00
21275;DHT22;36472;52.170;20.884;2022-07-22T13:56:13;44.70;35.00
21275;DHT22;36472;52.170;20.884;2022-07-22T13:58:44;44.60;34.50
21275;DHT22;36472;52.170;20.884;2022-07-22T14:01:14;44.70;35.60
21275;DHT22;36472;52.170;20.884;2022-07-22T14:03:44;44.70;35.00
21275;DHT22;36472;52.170;20.884;2022-07-22T14:06:13;44.50;35.70
21275;DHT22;36472;52.170;20.884;2022-07-22T14:08:41;44.30;36.00
21275;DHT22;36472;52.170;20.884;2022-07-22T14:11:10;44.40;35.70
21275;DHT22;36472;52.170;20.884;2022-07-22T14:13:39;44.40;34.90
21275;DHT22;36472;52.170;20.884;2022-07-22T14:16:08;44.40;36.00
21275;DHT22;36472;52.170;20.884;2022-07-22T14:19:16;44.40;35.80
21275;DHT22;36472;52.170;20.884;2022-07-22T14:21:46;44.30;35.10
21275;DHT22;36472;52.170;20.884;2022-07-22T14:24:15;44.20;35.30
21275;DHT22;36472;52.170;20.884;2022-07-22T14:26:44;44.10;35.60
21275;DHT22;36472;52.170;20.884;2022-07-22T14:29:12;44.00;35.80
21275;DHT22;36472;52.170;20.884;2022-07-22T14:31:41;43.90;35.60
21275;DHT22;36472;52.170;20.884;2022-07-22T14:34:10;43.90;35.70
21275;DHT22;36472;52.170;20.884;2022-07-22T14:36:40;43.90;35.90
21275;DHT22;36472;52.170;20.884;2022-07-22T14:39:09;43.90;36.00
21275;DHT22;36472;52.170;20.884;2022-07-22T14:41:38;43.80;35.20
21275;DHT22;36472;52.170;20.884;2022-07-22T14:44:06;44.00;35.60
21275;DHT22;36472;52.170;20.884;2022-07-22T14:46:35;43.80;35.80
21275;DHT22;36472;52.170;20.884;2022-07-22T14:49:04;43.70;35.80
21275;DHT22;36472;52.170;20.884;2022-07-22T14:51:42;43.80;36.90
21275;DHT22;36472;52.170;20.884;2022-07-22T14:54:13;43.90;35.50
21275;DHT22;36472;52.170;20.884;2022-07-22T14:56:42;43.90;35.90
21275;DHT22;36472;52.170;20.884;2022-07-22T14:59:11;43.60;36.40
21275;DHT22;36472;52.170;20.884;2022-07-22T15:01:39;43.50;36.00
21275;DHT22;36472;52.170;20.884;2022-07-22T15:04:11;43.50;36.50
21275;DHT22;36472;52.170;20.884;2022-07-22T15:06:39;43.20;37.10
21275;DHT22;36472;52.170;20.884;2022-07-22T15:09:09;43.00;36.80
21275;DHT22;36472;52.170;20.884;2022-07-22T15:11:38;43.20;36.40
21275;DHT22;36472;52.170;20.884;2022-07-22T15:14:07;43.50;36.30
21275;DHT22;36472;52.170;20.884;2022-07-22T15:16:37;43.70;36.00
21275;DHT22;36472;52.170;20.884;2022-07-22T15:19:06;43.80;36.20
21275;DHT22;36472;52.170;20.884;2022-07-22T15:21:34;43.80;35.80
21275;DHT22;36472;52.170;20.884;2022-07-22T15:24:03;43.80;35.50
21275;DHT22;36472;52.170;20.884;2022-07-22T15:26:34;43.30;35.40
21275;DHT22;36472;52.170;20.884;2022-07-22T15:29:03;43.40;35.50
21275;DHT22;36472;52.170;20.884;2022-07-22T15:31:31;43.40;35.50
21275;DHT22;36472;52.170;20.884;2022-07-22T15:34:01;43.30;35.70
21275;DHT22;36472;52.170;20.884;2022-07-22T15:36:30;43.30;36.10
21275;DHT22;36472;52.170;20.884;2022-07-22T15:38:58;43.40;35.80
21275;DHT22;36472;52.170;20.884;2022-07-22T15:41:28;43.60;36.70
21275;DHT22;36472;52.170;20.884;2022-07-22T15:43:58;43.70;36.30
21275;DHT22;36472;52.170;20.884;2022-07-22T15:46:27;43.80;34.90
21275;DHT22;36472;52.170;20.884;2022-07-22T15:48:56;43.70;35.00